CRF4 weather

Calgary / Okotoks (Rowland Field)
Calgary, Alberta, Canada

Public forecast

Using degrees Celsius for public forecast. Weather courtesy of forecast.io.

Closest aviation weather report (METAR) to Calgary / Okotoks (Rowland Field)

Closest report is Calgary International Airport, 21.1 nm (39.1 km) N. Retrieved 2019/12/11 08:41 UTC (0 seconds ago):

CYYC 110841Z 15011KT 1SM R17R/3000FT/N R29/3000V4500FT/U R17L/P6000FT/U BR VV003 M08/M09 A2982 RMK FG8 VIS VRB 3/4-11/4 SLP159

Closest aviation forecast (TAF) to Calgary / Okotoks (Rowland Field)

Closest forecast is Calgary International Airport, 21.1 nm (39.1 km) N. Retrieved 2019/12/11 09:51 UTC (0 seconds ago):

TAF CYYC 110849Z 1109/1206 15012KT 1/2SM FZFG VV002 TEMPO 1109/1113 3SM BR OVC006 FM111300 18008KT P6SM SCT006 SCT040 BKN120 TEMPO 1113/1115 4SM -SN BR BKN006 BKN040 OVC080 FM111500 22005KT P6SM -SN SCT006 BKN060 TEMPO 1115/1118 2SM -SN BR BKN006 OVC060 FM111800 33006KT P6SM SCT060 TEMPO 1118/1203 SCT006 BKN060 BECMG 1120/1122 14006KT FM120300 20005KT P6SM FEW006 SCT200 RMK NXT FCST BY 111200Z